sensor_id;sensor_type;location;lat;lon;timestamp;P1;durP1;ratioP1;P2;durP2;ratioP2
7683;SDS011;3884;48.616;12.872;2024-02-28T00:00:02;24.30;;;18.10;;
7683;SDS011;3884;48.616;12.872;2024-02-28T00:02:31;23.17;;;18.03;;
7683;SDS011;3884;48.616;12.872;2024-02-28T00:07:58;30.17;;;20.37;;
7683;SDS011;3884;48.616;12.872;2024-02-28T00:10:39;26.13;;;18.67;;
7683;SDS011;3884;48.616;12.872;2024-02-28T00:13:08;28.37;;;18.07;;
7683;SDS011;3884;48.616;12.872;2024-02-28T00:15:35;25.40;;;18.47;;
7683;SDS011;3884;48.616;12.872;2024-02-28T00:18:02;26.20;;;18.07;;
7683;SDS011;3884;48.616;12.872;2024-02-28T00:20:29;24.87;;;18.07;;
7683;SDS011;3884;48.616;12.872;2024-02-28T00:23:00;24.30;;;17.37;;
7683;SDS011;3884;48.616;12.872;2024-02-28T00:25:41;28.00;;;20.50;;
7683;SDS011;3884;48.616;12.872;2024-02-28T00:28:09;34.40;;;26.33;;
7683;SDS011;3884;48.616;12.872;2024-02-28T00:30:35;27.63;;;20.30;;
7683;SDS011;3884;48.616;12.872;2024-02-28T00:33:03;25.40;;;18.50;;
7683;SDS011;3884;48.616;12.872;2024-02-28T00:35:31;20.40;;;16.23;;
7683;SDS011;3884;48.616;12.872;2024-02-28T00:38:06;25.80;;;18.92;;
7683;SDS011;3884;48.616;12.872;2024-02-28T00:40:33;23.67;;;17.33;;
7683;SDS011;3884;48.616;12.872;2024-02-28T00:43:01;28.33;;;18.97;;
7683;SDS011;3884;48.616;12.872;2024-02-28T00:45:29;23.90;;;18.27;;
7683;SDS011;3884;48.616;12.872;2024-02-28T00:47:56;31.73;;;20.93;;
7683;SDS011;3884;48.616;12.872;2024-02-28T00:50:23;24.33;;;18.97;;
7683;SDS011;3884;48.616;12.872;2024-02-28T00:53:07;25.83;;;19.17;;
7683;SDS011;3884;48.616;12.872;2024-02-28T00:55:33;21.07;;;17.27;;
7683;SDS011;3884;48.616;12.872;2024-02-28T00:58:00;25.03;;;17.77;;
7683;SDS011;3884;48.616;12.872;2024-02-28T01:00:27;23.80;;;17.57;;
7683;SDS011;3884;48.616;12.872;2024-02-28T01:02:56;23.57;;;18.23;;
7683;SDS011;3884;48.616;12.872;2024-02-28T01:05:24;25.30;;;18.67;;
7683;SDS011;3884;48.616;12.872;2024-02-28T01:08:10;30.17;;;19.87;;
7683;SDS011;3884;48.616;12.872;2024-02-28T01:10:50;27.77;;;19.13;;
7683;SDS011;3884;48.616;12.872;2024-02-28T01:13:19;24.40;;;18.13;;
7683;SDS011;3884;48.616;12.872;2024-02-28T01:15:46;24.90;;;17.13;;
7683;SDS011;3884;48.616;12.872;2024-02-28T01:18:13;23.87;;;17.20;;
7683;SDS011;3884;48.616;12.872;2024-02-28T01:20:40;21.90;;;16.87;;
7683;SDS011;3884;48.616;12.872;2024-02-28T01:23:09;25.40;;;17.30;;
7683;SDS011;3884;48.616;12.872;2024-02-28T01:25:36;23.00;;;18.03;;
7683;SDS011;3884;48.616;12.872;2024-02-28T01:28:03;22.60;;;16.73;;
7683;SDS011;3884;48.616;12.872;2024-02-28T01:30:31;22.03;;;16.80;;
7683;SDS011;3884;48.616;12.872;2024-02-28T01:33:05;23.73;;;17.97;;
7683;SDS011;3884;48.616;12.872;2024-02-28T01:35:34;26.37;;;19.77;;
7683;SDS011;3884;48.616;12.872;2024-02-28T01:38:01;26.67;;;19.33;;
7683;SDS011;3884;48.616;12.872;2024-02-28T01:40:29;26.73;;;19.03;;
7683;SDS011;3884;48.616;12.872;2024-02-28T01:43:01;23.43;;;17.30;;
7683;SDS011;3884;48.616;12.872;2024-02-28T01:45:29;25.07;;;18.30;;
7683;SDS011;3884;48.616;12.872;2024-02-28T01:47:56;28.83;;;18.90;;
7683;SDS011;3884;48.616;12.872;2024-02-28T01:50:24;25.20;;;19.40;;
7683;SDS011;3884;48.616;12.872;2024-02-28T01:53:05;26.47;;;20.40;;
7683;SDS011;3884;48.616;12.872;2024-02-28T01:58:27;35.03;;;22.50;;
7683;SDS011;3884;48.616;12.872;2024-02-28T02:00:54;34.60;;;24.83;;
7683;SDS011;3884;48.616;12.872;2024-02-28T02:03:21;32.43;;;22.40;;
7683;SDS011;3884;48.616;12.872;2024-02-28T02:05:52;30.80;;;22.33;;
7683;SDS011;3884;48.616;12.872;2024-02-28T02:08:19;28.07;;;21.93;;
7683;SDS011;3884;48.616;12.872;2024-02-28T02:10:47;32.10;;;22.27;;
7683;SDS011;3884;48.616;12.872;2024-02-28T02:13:16;30.33;;;21.33;;
7683;SDS011;3884;48.616;12.872;2024-02-28T02:15:43;32.50;;;23.10;;
7683;SDS011;3884;48.616;12.872;2024-02-28T02:18:09;34.83;;;24.13;;
7683;SDS011;3884;48.616;12.872;2024-02-28T02:20:38;33.60;;;22.83;;
7683;SDS011;3884;48.616;12.872;2024-02-28T02:23:12;31.07;;;21.47;;
7683;SDS011;3884;48.616;12.872;2024-02-28T02:25:43;28.30;;;21.10;;
7683;SDS011;3884;48.616;12.872;2024-02-28T02:28:11;29.43;;;20.60;;
7683;SDS011;3884;48.616;12.872;2024-02-28T02:30:38;27.70;;;20.70;;
7683;SDS011;3884;48.616;12.872;2024-02-28T02:33:05;31.77;;;21.63;;
7683;SDS011;3884;48.616;12.872;2024-02-28T02:35:31;31.97;;;21.93;;
7683;SDS011;3884;48.616;12.872;2024-02-28T02:37:58;28.20;;;20.40;;
7683;SDS011;3884;48.616;12.872;2024-02-28T02:40:27;29.57;;;21.27;;
7683;SDS011;3884;48.616;12.872;2024-02-28T02:42:53;31.30;;;23.17;;
7683;SDS011;3884;48.616;12.872;2024-02-28T02:45:20;33.00;;;22.73;;
7683;SDS011;3884;48.616;12.872;2024-02-28T02:47:47;33.73;;;22.33;;
7683;SDS011;3884;48.616;12.872;2024-02-28T02:50:14;32.43;;;23.30;;
7683;SDS011;3884;48.616;12.872;2024-02-28T02:52:41;29.20;;;21.00;;
7683;SDS011;3884;48.616;12.872;2024-02-28T02:55:08;33.17;;;22.80;;
7683;SDS011;3884;48.616;12.872;2024-02-28T02:57:36;34.00;;;22.73;;
7683;SDS011;3884;48.616;12.872;2024-02-28T03:00:04;34.33;;;22.47;;
7683;SDS011;3884;48.616;12.872;2024-02-28T03:02:34;32.93;;;22.70;;
7683;SDS011;3884;48.616;12.872;2024-02-28T03:05:02;31.17;;;22.80;;
7683;SDS011;3884;48.616;12.872;2024-02-28T03:07:30;29.97;;;22.07;;
7683;SDS011;3884;48.616;12.872;2024-02-28T03:09:57;31.67;;;22.27;;
7683;SDS011;3884;48.616;12.872;2024-02-28T03:12:24;31.13;;;22.13;;
7683;SDS011;3884;48.616;12.872;2024-02-28T03:14:52;29.77;;;21.87;;
7683;SDS011;3884;48.616;12.872;2024-02-28T03:17:19;28.20;;;21.40;;
7683;SDS011;3884;48.616;12.872;2024-02-28T03:19:46;26.20;;;19.97;;
7683;SDS011;3884;48.616;12.872;2024-02-28T03:22:13;26.80;;;20.33;;
7683;SDS011;3884;48.616;12.872;2024-02-28T03:24:40;26.60;;;20.43;;
7683;SDS011;3884;48.616;12.872;2024-02-28T03:27:07;27.40;;;19.40;;
7683;SDS011;3884;48.616;12.872;2024-02-28T03:29:35;24.50;;;19.47;;
7683;SDS011;3884;48.616;12.872;2024-02-28T03:32:04;27.67;;;19.60;;
7683;SDS011;3884;48.616;12.872;2024-02-28T03:34:31;23.43;;;18.63;;
7683;SDS011;3884;48.616;12.872;2024-02-28T03:36:59;25.70;;;18.67;;
7683;SDS011;3884;48.616;12.872;2024-02-28T03:39:27;26.00;;;19.30;;
7683;SDS011;3884;48.616;12.872;2024-02-28T03:41:54;24.37;;;19.43;;
7683;SDS011;3884;48.616;12.872;2024-02-28T03:44:21;25.30;;;18.40;;
7683;SDS011;3884;48.616;12.872;2024-02-28T03:46:51;24.37;;;18.70;;
7683;SDS011;3884;48.616;12.872;2024-02-28T03:49:22;24.77;;;19.23;;
7683;SDS011;3884;48.616;12.872;2024-02-28T03:51:49;24.97;;;19.30;;
7683;SDS011;3884;48.616;12.872;2024-02-28T03:54:16;23.93;;;18.53;;
7683;SDS011;3884;48.616;12.872;2024-02-28T03:56:45;27.37;;;20.03;;
7683;SDS011;3884;48.616;12.872;2024-02-28T03:59:13;26.90;;;21.43;;
7683;SDS011;3884;48.616;12.872;2024-02-28T04:01:40;25.63;;;20.90;;
7683;SDS011;3884;48.616;12.872;2024-02-28T04:04:07;28.03;;;22.40;;
7683;SDS011;3884;48.616;12.872;2024-02-28T04:06:36;28.87;;;21.20;;
7683;SDS011;3884;48.616;12.872;2024-02-28T04:09:03;28.67;;;21.77;;
7683;SDS011;3884;48.616;12.872;2024-02-28T04:11:30;31.07;;;22.40;;
7683;SDS011;3884;48.616;12.872;2024-02-28T04:13:58;31.07;;;23.27;;
7683;SDS011;3884;48.616;12.872;2024-02-28T04:16:25;30.67;;;22.57;;
7683;SDS011;3884;48.616;12.872;2024-02-28T04:18:51;27.63;;;21.73;;
7683;SDS011;3884;48.616;12.872;2024-02-28T04:21:18;29.17;;;21.57;;
7683;SDS011;3884;48.616;12.872;2024-02-28T04:23:47;33.37;;;23.27;;
7683;SDS011;3884;48.616;12.872;2024-02-28T04:26:13;32.03;;;22.83;;
7683;SDS011;3884;48.616;12.872;2024-02-28T04:28:41;32.60;;;22.50;;
7683;SDS011;3884;48.616;12.872;2024-02-28T04:31:08;34.23;;;24.03;;
7683;SDS011;3884;48.616;12.872;2024-02-28T04:33:35;35.67;;;25.03;;
7683;SDS011;3884;48.616;12.872;2024-02-28T04:36:03;37.87;;;24.37;;
7683;SDS011;3884;48.616;12.872;2024-02-28T04:38:31;30.23;;;22.57;;
7683;SDS011;3884;48.616;12.872;2024-02-28T04:40:59;30.40;;;22.53;;
7683;SDS011;3884;48.616;12.872;2024-02-28T04:43:27;33.03;;;24.10;;
7683;SDS011;3884;48.616;12.872;2024-02-28T04:45:54;32.50;;;24.03;;
7683;SDS011;3884;48.616;12.872;2024-02-28T04:48:21;34.80;;;25.47;;
7683;SDS011;3884;48.616;12.872;2024-02-28T04:50:49;36.93;;;25.57;;
7683;SDS011;3884;48.616;12.872;2024-02-28T04:53:15;39.53;;;26.77;;
7683;SDS011;3884;48.616;12.872;2024-02-28T04:55:42;38.03;;;27.30;;
7683;SDS011;3884;48.616;12.872;2024-02-28T04:58:11;40.50;;;27.43;;
7683;SDS011;3884;48.616;12.872;2024-02-28T05:00:39;43.13;;;29.97;;
7683;SDS011;3884;48.616;12.872;2024-02-28T05:03:06;47.40;;;31.70;;
7683;SDS011;3884;48.616;12.872;2024-02-28T05:05:33;49.60;;;33.20;;
7683;SDS011;3884;48.616;12.872;2024-02-28T05:08:00;50.57;;;33.83;;
7683;SDS011;3884;48.616;12.872;2024-02-28T05:10:27;57.83;;;33.47;;
7683;SDS011;3884;48.616;12.872;2024-02-28T05:12:54;52.67;;;33.60;;
7683;SDS011;3884;48.616;12.872;2024-02-28T05:15:22;58.00;;;36.17;;
7683;SDS011;3884;48.616;12.872;2024-02-28T05:17:49;61.50;;;38.27;;
7683;SDS011;3884;48.616;12.872;2024-02-28T05:20:16;62.60;;;37.07;;
7683;SDS011;3884;48.616;12.872;2024-02-28T05:22:43;64.00;;;38.23;;
7683;SDS011;3884;48.616;12.872;2024-02-28T05:25:10;64.63;;;39.13;;
7683;SDS011;3884;48.616;12.872;2024-02-28T05:27:37;62.63;;;37.80;;
7683;SDS011;3884;48.616;12.872;2024-02-28T05:30:05;65.00;;;37.40;;
7683;SDS011;3884;48.616;12.872;2024-02-28T05:32:34;59.27;;;35.60;;
7683;SDS011;3884;48.616;12.872;2024-02-28T05:35:00;67.93;;;42.88;;
7683;SDS011;3884;48.616;12.872;2024-02-28T05:37:27;54.17;;;35.70;;
7683;SDS011;3884;48.616;12.872;2024-02-28T05:39:54;55.97;;;34.83;;
7683;SDS011;3884;48.616;12.872;2024-02-28T05:42:21;60.10;;;35.90;;
7683;SDS011;3884;48.616;12.872;2024-02-28T05:44:49;53.20;;;35.07;;
7683;SDS011;3884;48.616;12.872;2024-02-28T05:47:16;61.77;;;35.50;;
7683;SDS011;3884;48.616;12.872;2024-02-28T05:49:44;57.27;;;35.73;;
7683;SDS011;3884;48.616;12.872;2024-02-28T05:52:11;60.20;;;35.73;;
7683;SDS011;3884;48.616;12.872;2024-02-28T05:54:38;59.57;;;37.30;;
7683;SDS011;3884;48.616;12.872;2024-02-28T05:57:06;59.83;;;35.97;;
7683;SDS011;3884;48.616;12.872;2024-02-28T05:59:33;56.93;;;34.93;;
7683;SDS011;3884;48.616;12.872;2024-02-28T06:02:00;59.00;;;37.53;;
7683;SDS011;3884;48.616;12.872;2024-02-28T06:04:27;55.10;;;36.03;;
7683;SDS011;3884;48.616;12.872;2024-02-28T06:06:55;57.67;;;37.07;;
7683;SDS011;3884;48.616;12.872;2024-02-28T06:09:22;61.70;;;38.70;;
7683;SDS011;3884;48.616;12.872;2024-02-28T06:11:49;61.57;;;38.37;;
7683;SDS011;3884;48.616;12.872;2024-02-28T06:14:16;63.07;;;37.13;;
7683;SDS011;3884;48.616;12.872;2024-02-28T06:16:46;58.67;;;36.47;;
7683;SDS011;3884;48.616;12.872;2024-02-28T06:19:13;55.03;;;36.47;;
7683;SDS011;3884;48.616;12.872;2024-02-28T06:21:40;58.17;;;36.20;;
7683;SDS011;3884;48.616;12.872;2024-02-28T06:24:09;64.60;;;37.37;;
7683;SDS011;3884;48.616;12.872;2024-02-28T06:26:36;59.60;;;37.30;;
7683;SDS011;3884;48.616;12.872;2024-02-28T06:29:03;58.00;;;37.17;;
7683;SDS011;3884;48.616;12.872;2024-02-28T06:31:31;62.37;;;37.07;;
7683;SDS011;3884;48.616;12.872;2024-02-28T06:33:58;55.33;;;35.40;;
7683;SDS011;3884;48.616;12.872;2024-02-28T06:36:25;53.20;;;32.07;;
7683;SDS011;3884;48.616;12.872;2024-02-28T06:38:52;47.83;;;31.90;;
7683;SDS011;3884;48.616;12.872;2024-02-28T06:41:21;47.23;;;31.60;;
7683;SDS011;3884;48.616;12.872;2024-02-28T06:43:48;54.63;;;31.63;;
7683;SDS011;3884;48.616;12.872;2024-02-28T06:46:15;54.57;;;34.10;;
7683;SDS011;3884;48.616;12.872;2024-02-28T06:48:43;51.80;;;31.63;;
7683;SDS011;3884;48.616;12.872;2024-02-28T06:51:10;45.67;;;29.53;;
7683;SDS011;3884;48.616;12.872;2024-02-28T06:53:37;47.00;;;31.33;;
7683;SDS011;3884;48.616;12.872;2024-02-28T06:56:06;48.23;;;32.30;;
7683;SDS011;3884;48.616;12.872;2024-02-28T06:58:35;47.80;;;31.30;;
7683;SDS011;3884;48.616;12.872;2024-02-28T07:01:02;49.00;;;33.17;;
7683;SDS011;3884;48.616;12.872;2024-02-28T07:03:30;42.27;;;29.33;;
7683;SDS011;3884;48.616;12.872;2024-02-28T07:05:57;43.23;;;28.53;;
7683;SDS011;3884;48.616;12.872;2024-02-28T07:08:24;44.60;;;30.50;;
7683;SDS011;3884;48.616;12.872;2024-02-28T07:10:50;52.33;;;32.70;;
7683;SDS011;3884;48.616;12.872;2024-02-28T07:13:18;51.40;;;32.80;;
7683;SDS011;3884;48.616;12.872;2024-02-28T07:15:47;54.67;;;34.00;;
7683;SDS011;3884;48.616;12.872;2024-02-28T07:18:15;61.07;;;36.47;;
7683;SDS011;3884;48.616;12.872;2024-02-28T07:20:42;55.60;;;34.10;;
7683;SDS011;3884;48.616;12.872;2024-02-28T07:23:08;56.43;;;35.57;;
7683;SDS011;3884;48.616;12.872;2024-02-28T07:25:35;52.60;;;34.73;;
7683;SDS011;3884;48.616;12.872;2024-02-28T07:28:02;52.63;;;33.93;;
7683;SDS011;3884;48.616;12.872;2024-02-28T07:30:31;56.20;;;35.37;;
7683;SDS011;3884;48.616;12.872;2024-02-28T07:32:59;51.90;;;33.80;;
7683;SDS011;3884;48.616;12.872;2024-02-28T07:35:26;57.00;;;35.30;;
7683;SDS011;3884;48.616;12.872;2024-02-28T07:37:53;54.03;;;34.77;;
7683;SDS011;3884;48.616;12.872;2024-02-28T07:40:20;53.77;;;36.63;;
7683;SDS011;3884;48.616;12.872;2024-02-28T07:42:47;55.43;;;35.03;;
7683;SDS011;3884;48.616;12.872;2024-02-28T07:45:14;58.57;;;35.60;;
7683;SDS011;3884;48.616;12.872;2024-02-28T07:47:41;60.57;;;40.03;;
7683;SDS011;3884;48.616;12.872;2024-02-28T07:50:14;89.30;;;55.70;;
7683;SDS011;3884;48.616;12.872;2024-02-28T07:52:41;119.97;;;70.67;;
7683;SDS011;3884;48.616;12.872;2024-02-28T07:55:08;53.80;;;35.50;;
7683;SDS011;3884;48.616;12.872;2024-02-28T07:57:35;53.93;;;34.10;;
7683;SDS011;3884;48.616;12.872;2024-02-28T08:00:02;52.30;;;33.60;;
7683;SDS011;3884;48.616;12.872;2024-02-28T08:02:37;53.37;;;33.53;;
7683;SDS011;3884;48.616;12.872;2024-02-28T08:05:04;54.03;;;34.73;;
7683;SDS011;3884;48.616;12.872;2024-02-28T08:07:34;121.73;;;66.60;;
7683;SDS011;3884;48.616;12.872;2024-02-28T08:10:00;58.23;;;36.50;;
7683;SDS011;3884;48.616;12.872;2024-02-28T08:12:30;66.73;;;41.87;;
7683;SDS011;3884;48.616;12.872;2024-02-28T08:14:57;54.40;;;36.77;;
7683;SDS011;3884;48.616;12.872;2024-02-28T08:17:24;54.70;;;35.67;;
7683;SDS011;3884;48.616;12.872;2024-02-28T08:19:51;54.07;;;35.23;;
7683;SDS011;3884;48.616;12.872;2024-02-28T08:22:17;54.90;;;36.17;;
7683;SDS011;3884;48.616;12.872;2024-02-28T08:24:46;68.73;;;40.83;;
7683;SDS011;3884;48.616;12.872;2024-02-28T08:27:13;52.77;;;34.27;;
7683;SDS011;3884;48.616;12.872;2024-02-28T08:29:40;58.03;;;38.13;;
7683;SDS011;3884;48.616;12.872;2024-02-28T08:32:09;55.40;;;36.80;;
7683;SDS011;3884;48.616;12.872;2024-02-28T08:34:37;54.83;;;35.43;;
7683;SDS011;3884;48.616;12.872;2024-02-28T08:37:04;52.73;;;35.30;;
7683;SDS011;3884;48.616;12.872;2024-02-28T08:39:31;53.30;;;34.47;;
7683;SDS011;3884;48.616;12.872;2024-02-28T08:41:59;54.13;;;34.37;;
7683;SDS011;3884;48.616;12.872;2024-02-28T08:44:26;59.27;;;37.77;;
7683;SDS011;3884;48.616;12.872;2024-02-28T08:46:53;131.63;;;91.83;;
7683;SDS011;3884;48.616;12.872;2024-02-28T08:49:20;70.07;;;48.17;;
7683;SDS011;3884;48.616;12.872;2024-02-28T08:51:47;55.13;;;34.17;;
7683;SDS011;3884;48.616;12.872;2024-02-28T08:54:14;56.43;;;32.90;;
7683;SDS011;3884;48.616;12.872;2024-02-28T08:56:41;49.33;;;31.60;;
7683;SDS011;3884;48.616;12.872;2024-02-28T08:59:10;55.30;;;33.43;;
7683;SDS011;3884;48.616;12.872;2024-02-28T09:01:37;54.57;;;36.00;;
7683;SDS011;3884;48.616;12.872;2024-02-28T09:04:06;50.77;;;34.27;;
7683;SDS011;3884;48.616;12.872;2024-02-28T09:06:33;49.20;;;32.50;;
7683;SDS011;3884;48.616;12.872;2024-02-28T09:09:00;50.00;;;34.03;;
7683;SDS011;3884;48.616;12.872;2024-02-28T09:11:28;49.40;;;31.63;;
7683;SDS011;3884;48.616;12.872;2024-02-28T09:13:55;47.10;;;31.07;;
7683;SDS011;3884;48.616;12.872;2024-02-28T09:16:25;46.80;;;31.20;;
7683;SDS011;3884;48.616;12.872;2024-02-28T09:18:53;44.70;;;30.50;;
7683;SDS011;3884;48.616;12.872;2024-02-28T09:21:20;42.73;;;28.47;;
7683;SDS011;3884;48.616;12.872;2024-02-28T09:23:47;44.03;;;28.47;;
7683;SDS011;3884;48.616;12.872;2024-02-28T09:26:14;43.87;;;29.27;;
7683;SDS011;3884;48.616;12.872;2024-02-28T09:28:41;46.20;;;28.70;;
7683;SDS011;3884;48.616;12.872;2024-02-28T09:31:08;40.73;;;26.87;;
7683;SDS011;3884;48.616;12.872;2024-02-28T09:33:36;40.27;;;27.37;;
7683;SDS011;3884;48.616;12.872;2024-02-28T09:36:03;40.87;;;27.80;;
7683;SDS011;3884;48.616;12.872;2024-02-28T09:38:31;38.43;;;26.97;;
7683;SDS011;3884;48.616;12.872;2024-02-28T09:41:00;40.17;;;27.47;;
7683;SDS011;3884;48.616;12.872;2024-02-28T09:43:28;38.67;;;27.10;;
7683;SDS011;3884;48.616;12.872;2024-02-28T09:45:56;39.20;;;26.97;;
7683;SDS011;3884;48.616;12.872;2024-02-28T09:48:26;43.03;;;28.10;;
7683;SDS011;3884;48.616;12.872;2024-02-28T09:50:56;39.40;;;27.87;;
7683;SDS011;3884;48.616;12.872;2024-02-28T09:53:23;39.63;;;27.10;;
7683;SDS011;3884;48.616;12.872;2024-02-28T09:55:50;65.63;;;43.07;;
7683;SDS011;3884;48.616;12.872;2024-02-28T09:58:18;45.93;;;30.27;;
7683;SDS011;3884;48.616;12.872;2024-02-28T10:00:46;37.20;;;26.43;;
7683;SDS011;3884;48.616;12.872;2024-02-28T10:03:16;39.70;;;27.03;;
7683;SDS011;3884;48.616;12.872;2024-02-28T10:05:44;40.27;;;27.60;;
7683;SDS011;3884;48.616;12.872;2024-02-28T10:08:13;36.97;;;26.47;;
7683;SDS011;3884;48.616;12.872;2024-02-28T10:10:44;47.73;;;31.60;;
7683;SDS011;3884;48.616;12.872;2024-02-28T10:13:12;42.23;;;27.43;;
7683;SDS011;3884;48.616;12.872;2024-02-28T10:15:39;37.10;;;26.23;;
7683;SDS011;3884;48.616;12.872;2024-02-28T10:18:06;38.90;;;26.60;;
7683;SDS011;3884;48.616;12.872;2024-02-28T10:20:33;40.77;;;28.13;;
7683;SDS011;3884;48.616;12.872;2024-02-28T10:23:03;40.80;;;27.23;;
7683;SDS011;3884;48.616;12.872;2024-02-28T10:25:32;41.10;;;28.90;;
7683;SDS011;3884;48.616;12.872;2024-02-28T10:27:59;36.30;;;26.70;;
7683;SDS011;3884;48.616;12.872;2024-02-28T10:30:26;38.10;;;28.17;;
7683;SDS011;3884;48.616;12.872;2024-02-28T10:32:53;38.57;;;26.53;;
7683;SDS011;3884;48.616;12.872;2024-02-28T10:35:21;37.07;;;25.83;;
7683;SDS011;3884;48.616;12.872;2024-02-28T10:37:50;38.80;;;27.80;;
7683;SDS011;3884;48.616;12.872;2024-02-28T10:40:20;39.77;;;28.63;;
7683;SDS011;3884;48.616;12.872;2024-02-28T10:42:49;40.57;;;29.73;;
7683;SDS011;3884;48.616;12.872;2024-02-28T10:45:16;40.57;;;27.37;;
7683;SDS011;3884;48.616;12.872;2024-02-28T10:47:45;37.43;;;27.37;;
7683;SDS011;3884;48.616;12.872;2024-02-28T10:50:13;37.70;;;26.43;;
7683;SDS011;3884;48.616;12.872;2024-02-28T10:52:43;37.47;;;28.27;;
7683;SDS011;3884;48.616;12.872;2024-02-28T10:55:12;37.93;;;28.27;;
7683;SDS011;3884;48.616;12.872;2024-02-28T10:57:42;38.60;;;26.57;;
7683;SDS011;3884;48.616;12.872;2024-02-28T11:00:13;36.60;;;26.60;;
7683;SDS011;3884;48.616;12.872;2024-02-28T11:02:41;37.70;;;27.23;;
7683;SDS011;3884;48.616;12.872;2024-02-28T11:05:09;37.40;;;26.93;;
7683;SDS011;3884;48.616;12.872;2024-02-28T11:07:36;36.50;;;26.27;;
7683;SDS011;3884;48.616;12.872;2024-02-28T11:10:09;35.57;;;25.73;;
7683;SDS011;3884;48.616;12.872;2024-02-28T11:12:54;36.57;;;26.27;;
7683;SDS011;3884;48.616;12.872;2024-02-28T11:21:34;43.27;;;29.67;;
7683;SDS011;3884;48.616;12.872;2024-02-28T11:24:15;38.97;;;26.70;;
7683;SDS011;3884;48.616;12.872;2024-02-28T11:26:43;41.87;;;27.67;;
7683;SDS011;3884;48.616;12.872;2024-02-28T11:29:11;40.77;;;27.40;;
7683;SDS011;3884;48.616;12.872;2024-02-28T11:31:52;40.17;;;27.70;;
7683;SDS011;3884;48.616;12.872;2024-02-28T11:34:35;38.67;;;28.77;;
7683;SDS011;3884;48.616;12.872;2024-02-28T11:37:28;37.67;;;28.00;;
7683;SDS011;3884;48.616;12.872;2024-02-28T11:39:57;41.20;;;29.67;;
7683;SDS011;3884;48.616;12.872;2024-02-28T11:42:29;44.60;;;27.43;;
7683;SDS011;3884;48.616;12.872;2024-02-28T11:44:56;39.90;;;27.40;;
7683;SDS011;3884;48.616;12.872;2024-02-28T11:47:23;38.83;;;27.77;;
7683;SDS011;3884;48.616;12.872;2024-02-28T11:49:52;40.50;;;27.73;;
7683;SDS011;3884;48.616;12.872;2024-02-28T11:52:20;37.33;;;26.03;;
7683;SDS011;3884;48.616;12.872;2024-02-28T11:54:49;40.40;;;26.90;;
7683;SDS011;3884;48.616;12.872;2024-02-28T11:57:18;40.20;;;27.53;;
7683;SDS011;3884;48.616;12.872;2024-02-28T11:59:45;38.77;;;26.47;;
7683;SDS011;3884;48.616;12.872;2024-02-28T12:02:12;36.97;;;26.73;;
7683;SDS011;3884;48.616;12.872;2024-02-28T12:35:49;38.23;;;26.53;;
7683;SDS011;3884;48.616;12.872;2024-02-28T12:38:16;39.07;;;27.83;;
7683;SDS011;3884;48.616;12.872;2024-02-28T12:40:45;37.17;;;26.37;;
7683;SDS011;3884;48.616;12.872;2024-02-28T12:43:12;34.47;;;24.57;;
7683;SDS011;3884;48.616;12.872;2024-02-28T12:45:40;38.77;;;26.77;;
7683;SDS011;3884;48.616;12.872;2024-02-28T12:48:07;34.03;;;25.00;;
7683;SDS011;3884;48.616;12.872;2024-02-28T12:50:35;40.83;;;26.53;;
7683;SDS011;3884;48.616;12.872;2024-02-28T12:53:03;40.13;;;28.87;;
7683;SDS011;3884;48.616;12.872;2024-02-28T12:55:31;33.20;;;24.20;;
7683;SDS011;3884;48.616;12.872;2024-02-28T12:57:57;39.33;;;26.77;;
7683;SDS011;3884;48.616;12.872;2024-02-28T13:00:29;37.97;;;26.73;;
7683;SDS011;3884;48.616;12.872;2024-02-28T13:02:56;39.00;;;26.40;;
7683;SDS011;3884;48.616;12.872;2024-02-28T13:05:23;42.57;;;28.03;;
7683;SDS011;3884;48.616;12.872;2024-02-28T13:07:51;38.43;;;27.37;;
7683;SDS011;3884;48.616;12.872;2024-02-28T13:10:20;45.13;;;30.53;;
7683;SDS011;3884;48.616;12.872;2024-02-28T13:12:47;38.47;;;26.43;;
7683;SDS011;3884;48.616;12.872;2024-02-28T13:15:14;40.60;;;27.67;;
7683;SDS011;3884;48.616;12.872;2024-02-28T13:17:41;37.33;;;26.40;;
7683;SDS011;3884;48.616;12.872;2024-02-28T13:20:08;37.93;;;26.00;;
7683;SDS011;3884;48.616;12.872;2024-02-28T13:22:36;37.20;;;25.97;;
7683;SDS011;3884;48.616;12.872;2024-02-28T13:25:03;38.47;;;26.67;;
7683;SDS011;3884;48.616;12.872;2024-02-28T13:27:33;42.97;;;28.87;;
7683;SDS011;3884;48.616;12.872;2024-02-28T13:30:00;39.67;;;27.40;;
7683;SDS011;3884;48.616;12.872;2024-02-28T13:32:28;42.30;;;28.13;;
7683;SDS011;3884;48.616;12.872;2024-02-28T13:34:55;46.10;;;29.40;;
7683;SDS011;3884;48.616;12.872;2024-02-28T13:37:21;41.77;;;28.10;;
7683;SDS011;3884;48.616;12.872;2024-02-28T13:39:49;36.80;;;27.07;;
7683;SDS011;3884;48.616;12.872;2024-02-28T13:42:17;41.57;;;27.83;;
7683;SDS011;3884;48.616;12.872;2024-02-28T13:44:46;40.10;;;28.00;;
7683;SDS011;3884;48.616;12.872;2024-02-28T13:47:13;39.73;;;28.07;;
7683;SDS011;3884;48.616;12.872;2024-02-28T13:49:40;40.17;;;27.30;;
7683;SDS011;3884;48.616;12.872;2024-02-28T13:52:07;39.53;;;27.90;;
7683;SDS011;3884;48.616;12.872;2024-02-28T13:54:34;42.90;;;28.27;;
7683;SDS011;3884;48.616;12.872;2024-02-28T13:57:01;39.50;;;27.87;;
7683;SDS011;3884;48.616;12.872;2024-02-28T13:59:29;49.20;;;31.63;;
7683;SDS011;3884;48.616;12.872;2024-02-28T14:01:58;40.43;;;28.83;;
7683;SDS011;3884;48.616;12.872;2024-02-28T14:04:25;44.50;;;31.40;;
7683;SDS011;3884;48.616;12.872;2024-02-28T14:06:52;41.23;;;28.37;;
7683;SDS011;3884;48.616;12.872;2024-02-28T14:09:19;38.07;;;26.73;;
7683;SDS011;3884;48.616;12.872;2024-02-28T14:11:46;40.97;;;27.73;;
7683;SDS011;3884;48.616;12.872;2024-02-28T14:14:12;39.23;;;27.60;;
7683;SDS011;3884;48.616;12.872;2024-02-28T14:16:40;41.07;;;27.50;;
7683;SDS011;3884;48.616;12.872;2024-02-28T14:19:09;40.70;;;26.23;;
7683;SDS011;3884;48.616;12.872;2024-02-28T14:21:36;39.37;;;26.93;;
7683;SDS011;3884;48.616;12.872;2024-02-28T14:24:03;36.63;;;25.23;;
7683;SDS011;3884;48.616;12.872;2024-02-28T14:26:31;37.73;;;27.40;;
7683;SDS011;3884;48.616;12.872;2024-02-28T14:28:58;36.07;;;25.57;;
7683;SDS011;3884;48.616;12.872;2024-02-28T14:31:25;40.97;;;27.00;;
7683;SDS011;3884;48.616;12.872;2024-02-28T14:33:52;33.47;;;25.00;;
7683;SDS011;3884;48.616;12.872;2024-02-28T14:36:21;38.30;;;27.07;;
7683;SDS011;3884;48.616;12.872;2024-02-28T14:38:49;37.33;;;26.20;;
7683;SDS011;3884;48.616;12.872;2024-02-28T14:41:15;34.37;;;24.63;;
7683;SDS011;3884;48.616;12.872;2024-02-28T14:43:42;35.20;;;25.60;;
7683;SDS011;3884;48.616;12.872;2024-02-28T14:46:09;36.53;;;25.30;;
7683;SDS011;3884;48.616;12.872;2024-02-28T14:48:36;38.30;;;24.80;;
7683;SDS011;3884;48.616;12.872;2024-02-28T14:51:03;34.20;;;24.17;;
7683;SDS011;3884;48.616;12.872;2024-02-28T14:53:33;36.27;;;24.67;;
7683;SDS011;3884;48.616;12.872;2024-02-28T14:56:00;41.77;;;26.37;;
7683;SDS011;3884;48.616;12.872;2024-02-28T14:58:27;34.97;;;24.10;;
7683;SDS011;3884;48.616;12.872;2024-02-28T15:00:54;37.30;;;24.40;;
7683;SDS011;3884;48.616;12.872;2024-02-28T15:03:23;40.07;;;25.87;;
7683;SDS011;3884;48.616;12.872;2024-02-28T15:05:50;34.47;;;25.50;;
7683;SDS011;3884;48.616;12.872;2024-02-28T15:08:17;44.90;;;30.93;;
7683;SDS011;3884;48.616;12.872;2024-02-28T15:10:46;39.77;;;26.13;;
7683;SDS011;3884;48.616;12.872;2024-02-28T15:13:13;32.63;;;24.07;;
7683;SDS011;3884;48.616;12.872;2024-02-28T15:15:40;39.23;;;25.67;;
7683;SDS011;3884;48.616;12.872;2024-02-28T15:18:08;36.97;;;25.37;;
7683;SDS011;3884;48.616;12.872;2024-02-28T15:20:34;36.80;;;26.27;;